createdAt,value
2022-08-18T00:01:16.567Z,8.93
2022-08-18T00:03:57.250Z,8.23
2022-08-18T00:06:30.155Z,7.68
2022-08-18T00:09:01.170Z,7.38
2022-08-18T00:11:40.489Z,8.25
2022-08-18T00:14:11.552Z,7.43
2022-08-18T00:16:44.936Z,7.90
2022-08-18T00:19:14.028Z,7.95
2022-08-18T00:21:43.237Z,8.63
2022-08-18T00:24:12.741Z,7.93
2022-08-18T00:26:42.311Z,8.27
2022-08-18T00:29:16.415Z,8.85
2022-08-18T00:31:47.491Z,8.02
2022-08-18T00:34:17.130Z,8.75
2022-08-18T00:36:46.665Z,9.32
2022-08-18T00:39:16.192Z,8.60
2022-08-18T00:41:45.797Z,9.02
2022-08-18T00:44:16.646Z,9.35
2022-08-18T00:47:03.162Z,9.85
2022-08-18T00:49:32.706Z,10.02
2022-08-18T00:52:02.305Z,9.20
2022-08-18T00:54:33.032Z,9.13
2022-08-18T00:57:03.694Z,8.85
2022-08-18T00:59:35.576Z,9.13
2022-08-18T01:02:08.152Z,9.70
2022-08-18T01:04:42.518Z,9.65
2022-08-18T01:09:43.159Z,9.95
2022-08-18T01:12:44.417Z,9.20
2022-08-18T01:15:02.199Z,9.40
2022-08-18T01:17:50.660Z,8.40
2022-08-18T01:20:42.198Z,9.55
2022-08-18T01:23:14.827Z,8.40
2022-08-18T01:26:02.637Z,8.93
2022-08-18T01:28:34.869Z,8.27
2022-08-18T01:31:05.260Z,8.98
2022-08-18T01:33:38.124Z,9.05
2022-08-18T01:36:12.955Z,8.70
2022-08-18T01:38:43.995Z,8.30
2022-08-18T01:41:26.384Z,8.88
2022-08-18T01:43:59.136Z,8.07
2022-08-18T01:46:29.594Z,9.80
2022-08-18T01:49:01.566Z,8.48
2022-08-18T01:51:39.342Z,8.32
2022-08-18T01:54:15.551Z,9.43
2022-08-18T01:56:45.401Z,8.57
2022-08-18T01:59:15.279Z,8.60
2022-08-18T02:01:50.541Z,8.30
2022-08-18T02:04:35.670Z,8.80
2022-08-18T02:07:07.607Z,7.95
2022-08-18T02:09:38.951Z,8.00
2022-08-18T02:12:09.216Z,8.98
2022-08-18T02:14:41.752Z,8.63
2022-08-18T02:17:12.271Z,7.78
2022-08-18T02:19:44.870Z,8.35
2022-08-18T02:22:17.228Z,8.95
2022-08-18T02:24:49.165Z,8.02
2022-08-18T02:27:18.582Z,8.48
2022-08-18T02:29:48.077Z,8.15
2022-08-18T02:32:17.436Z,8.80
2022-08-18T02:34:46.586Z,8.50
2022-08-18T02:37:16.291Z,8.35
2022-08-18T02:39:46.032Z,8.52
2022-08-18T02:42:19.362Z,8.02
2022-08-18T02:44:48.721Z,8.75
2022-08-18T02:47:21.076Z,7.93
2022-08-18T02:49:51.170Z,7.63
2022-08-18T02:52:21.146Z,8.88
2022-08-18T02:54:51.096Z,8.52
2022-08-18T02:57:22.462Z,9.00
2022-08-18T02:59:52.046Z,8.05
2022-08-18T03:02:23.670Z,8.02
2022-08-18T03:04:52.794Z,8.77
2022-08-18T03:07:22.369Z,8.32
2022-08-18T03:09:51.979Z,7.55
2022-08-18T03:12:22.983Z,7.20
2022-08-18T03:14:55.193Z,7.80
2022-08-18T03:17:24.747Z,7.80
2022-08-18T03:19:54.287Z,8.05
2022-08-18T03:22:28.353Z,7.78
2022-08-18T03:24:59.355Z,7.90
2022-08-18T03:27:30.718Z,7.95
2022-08-18T03:30:00.864Z,8.00
2022-08-18T03:32:30.633Z,8.27
2022-08-18T03:35:00.743Z,8.52
2022-08-18T03:37:30.386Z,8.23
2022-08-18T03:40:00.004Z,8.48
2022-08-18T03:42:30.705Z,8.93
2022-08-18T03:45:00.115Z,8.73
2022-08-18T03:47:42.201Z,8.77
2022-08-18T03:50:13.910Z,9.82
2022-08-18T03:55:12.774Z,8.48
2022-08-18T03:57:43.566Z,8.13
2022-08-18T04:00:13.344Z,8.73
2022-08-18T04:02:42.592Z,9.88
2022-08-18T04:05:14.168Z,8.77
2022-08-18T04:07:47.030Z,10.57
2022-08-18T04:10:19.943Z,8.20
2022-08-18T04:12:51.223Z,9.43
2022-08-18T04:15:20.862Z,9.20
2022-08-18T04:18:02.948Z,9.30
2022-08-18T04:20:33.912Z,9.27
2022-08-18T04:23:06.225Z,10.43
2022-08-18T04:28:06.476Z,9.75
2022-08-18T04:30:35.937Z,9.82
2022-08-18T04:33:06.471Z,9.73
2022-08-18T04:35:35.868Z,9.82
2022-08-18T04:38:05.239Z,9.43
2022-08-18T04:40:34.627Z,10.27
2022-08-18T04:43:03.867Z,10.90
2022-08-18T04:45:34.627Z,11.38
2022-08-18T04:48:06.850Z,11.13
2022-08-18T04:53:31.007Z,10.45
2022-08-18T04:56:00.562Z,10.32
2022-08-18T04:58:29.979Z,10.55
2022-08-18T05:01:01.813Z,11.82
2022-08-18T05:03:33.711Z,10.77
2022-08-18T05:06:07.277Z,10.13
2022-08-18T05:08:39.435Z,10.55
2022-08-18T05:11:12.068Z,10.90
2022-08-18T05:13:41.500Z,11.18
2022-08-18T05:16:16.830Z,11.52
2022-08-18T05:18:48.965Z,10.07
2022-08-18T05:21:22.486Z,11.82
2022-08-18T05:23:54.042Z,11.32
2022-08-18T05:26:23.658Z,11.45
2022-08-18T05:29:04.194Z,10.90
2022-08-18T05:31:47.893Z,12.68
2022-08-18T05:34:17.956Z,12.90
2022-08-18T05:36:53.126Z,12.20
2022-08-18T05:39:24.364Z,11.13
2022-08-18T05:41:55.019Z,11.98
2022-08-18T05:44:27.325Z,13.60
2022-08-18T05:46:59.068Z,13.15
2022-08-18T05:49:29.485Z,11.80
2022-08-18T05:52:01.357Z,11.98
2022-08-18T05:54:55.567Z,12.88
2022-08-18T05:57:27.652Z,13.23
2022-08-18T06:02:33.908Z,13.00
2022-08-18T06:05:08.603Z,12.48
2022-08-18T06:07:39.339Z,11.85
2022-08-18T06:10:12.667Z,12.30
2022-08-18T06:12:47.184Z,11.93
2022-08-18T06:15:19.310Z,12.88
2022-08-18T06:18:04.002Z,13.05
2022-08-18T06:20:41.378Z,11.60
2022-08-18T06:23:24.779Z,11.00
2022-08-18T06:25:59.842Z,11.57
2022-08-18T06:28:32.380Z,12.38
2022-08-18T06:31:04.809Z,11.68
2022-08-18T06:33:42.515Z,11.48
2022-08-18T06:36:22.026Z,11.13
2022-08-18T06:38:59.312Z,11.02
2022-08-18T06:41:42.578Z,12.18
2022-08-18T06:44:18.755Z,11.40
2022-08-18T06:46:49.588Z,11.80
2022-08-18T06:49:26.921Z,11.07
2022-08-18T06:51:58.070Z,11.38
2022-08-18T06:54:32.049Z,11.93
2022-08-18T06:57:02.329Z,11.15
2022-08-18T06:59:32.337Z,11.15
2022-08-18T07:02:03.169Z,12.50
2022-08-18T07:04:42.844Z,11.60
2022-08-18T07:07:23.507Z,11.85
2022-08-18T07:09:55.332Z,10.60
2022-08-18T07:12:32.731Z,10.18
2022-08-18T07:15:03.858Z,10.48
2022-08-18T07:17:43.278Z,10.25
2022-08-18T07:20:21.176Z,10.20
2022-08-18T07:22:59.790Z,11.10
2022-08-18T07:25:31.607Z,9.80
2022-08-18T07:28:02.800Z,10.13
2022-08-18T07:30:37.144Z,11.27
2022-08-18T07:33:15.052Z,10.10
2022-08-18T07:35:49.247Z,9.98
2022-08-18T07:38:42.066Z,9.75
2022-08-18T07:41:19.147Z,9.25
2022-08-18T07:43:53.043Z,9.27
2022-08-18T07:46:25.842Z,9.15
2022-08-18T07:48:55.076Z,8.90
2022-08-18T07:51:38.637Z,8.73
2022-08-18T07:54:31.077Z,8.82
2022-08-18T07:57:19.197Z,8.85
2022-08-18T07:59:52.094Z,8.40
2022-08-18T08:02:33.749Z,8.30
2022-08-18T08:05:07.666Z,8.57
2022-08-18T08:07:40.692Z,8.20
2022-08-18T08:10:22.826Z,7.60
2022-08-18T08:13:08.095Z,7.78
2022-08-18T08:15:43.723Z,6.88
2022-08-18T08:18:14.477Z,6.25
2022-08-18T08:20:48.821Z,7.30
2022-08-18T08:23:24.719Z,6.47
2022-08-18T08:26:02.999Z,7.22
2022-08-18T08:28:39.477Z,6.22
2022-08-18T08:34:06.227Z,5.80
2022-08-18T08:36:37.785Z,5.90
2022-08-18T08:39:07.732Z,5.68
2022-08-18T08:41:43.500Z,6.28
2022-08-18T08:44:15.557Z,5.80
2022-08-18T08:49:21.433Z,6.47
2022-08-18T08:51:56.930Z,6.25
2022-08-18T08:54:28.893Z,5.70
2022-08-18T08:57:01.776Z,6.43
2022-08-18T08:59:34.959Z,6.43
2022-08-18T09:02:32.236Z,6.28
2022-08-18T09:05:09.747Z,6.57
2022-08-18T09:07:48.830Z,5.97
2022-08-18T09:10:39.698Z,6.13
2022-08-18T09:13:17.726Z,5.75
2022-08-18T09:15:55.478Z,6.05
2022-08-18T09:18:36.422Z,6.00
2022-08-18T09:21:16.013Z,6.05
2022-08-18T09:23:46.299Z,6.55
2022-08-18T09:26:27.315Z,6.13
2022-08-18T09:29:00.464Z,6.32
2022-08-18T09:31:32.395Z,6.07
2022-08-18T09:34:16.542Z,6.65
2022-08-18T09:36:52.872Z,7.53
2022-08-18T09:39:44.454Z,7.00
2022-08-18T09:42:15.889Z,6.43
2022-08-18T09:45:04.244Z,5.80
2022-08-18T09:47:52.181Z,6.03
2022-08-18T09:50:48.987Z,6.72
2022-08-18T09:53:33.554Z,6.35
2022-08-18T09:56:05.334Z,6.05
2022-08-18T09:58:52.778Z,6.97
2022-08-18T10:01:40.623Z,5.68
2022-08-18T10:04:35.649Z,6.10
2022-08-18T10:07:22.056Z,5.30
2022-08-18T10:10:01.295Z,4.57
2022-08-18T10:18:21.507Z,4.40
2022-08-18T10:20:58.161Z,5.10
2022-08-18T10:24:14.668Z,4.90
2022-08-18T10:27:13.547Z,5.15
2022-08-18T10:30:02.531Z,5.10
2022-08-18T10:32:49.480Z,5.30
2022-08-18T10:35:52.677Z,5.07
2022-08-18T10:38:33.407Z,4.88
2022-08-18T10:41:10.153Z,5.55
2022-08-18T10:46:25.358Z,5.30
2022-08-18T10:49:01.108Z,5.65
2022-08-18T10:51:59.451Z,5.40
2022-08-18T10:54:39.136Z,5.53
2022-08-18T10:57:27.643Z,6.05
2022-08-18T11:00:01.439Z,5.57
2022-08-18T11:02:46.249Z,4.78
2022-08-18T11:05:20.133Z,5.50
2022-08-18T11:07:58.501Z,4.93
2022-08-18T11:10:57.990Z,5.43
2022-08-18T11:13:40.609Z,5.25
2022-08-18T11:16:14.051Z,6.43
2022-08-18T11:18:44.986Z,7.45
2022-08-18T11:21:27.861Z,6.50
2022-08-18T11:24:19.651Z,6.47
2022-08-18T11:26:53.710Z,6.30
2022-08-18T11:29:27.208Z,6.55
2022-08-18T11:32:01.889Z,6.00
2022-08-18T11:34:37.474Z,6.35
2022-08-18T11:37:21.375Z,5.88
2022-08-18T11:39:51.634Z,6.07
2022-08-18T11:42:28.985Z,6.07
2022-08-18T11:45:04.719Z,6.53
2022-08-18T11:47:33.967Z,6.65
2022-08-18T11:50:10.409Z,7.15
2022-08-18T11:52:57.745Z,6.10
2022-08-18T11:55:31.844Z,7.03
2022-08-18T11:58:03.603Z,6.38
2022-08-18T12:00:45.928Z,8.27
2022-08-18T12:03:30.260Z,7.55
2022-08-18T12:06:01.065Z,7.82
2022-08-18T12:11:28.953Z,8.73
2022-08-18T12:14:32.590Z,7.93
2022-08-18T12:16:54.573Z,6.80
2022-08-18T12:19:25.315Z,7.25
2022-08-18T12:21:57.118Z,7.20
2022-08-18T12:24:36.844Z,6.55
2022-08-18T12:27:20.735Z,8.02
2022-08-18T12:29:53.362Z,8.95
2022-08-18T12:32:50.047Z,7.55
2022-08-18T12:35:14.367Z,8.63
2022-08-18T12:40:34.304Z,7.97
2022-08-18T12:43:03.656Z,7.88
2022-08-18T12:45:37.873Z,7.97
2022-08-18T12:48:07.898Z,7.30
2022-08-18T12:50:50.048Z,6.97
2022-08-18T12:53:29.513Z,8.30
2022-08-18T12:56:10.692Z,6.22
2022-08-18T12:58:40.779Z,7.43
2022-08-18T13:01:11.703Z,7.15
2022-08-18T13:03:42.584Z,7.22
2022-08-18T13:06:12.578Z,7.68
2022-08-18T13:08:48.032Z,7.38
2022-08-18T13:11:23.651Z,7.18
2022-08-18T13:13:56.559Z,7.13
2022-08-18T13:19:02.166Z,6.68
2022-08-18T13:21:39.021Z,6.47
2022-08-18T13:24:13.600Z,5.57
2022-08-18T13:26:48.673Z,5.72
2022-08-18T13:29:18.495Z,6.15
2022-08-18T13:31:56.121Z,6.30
2022-08-18T13:34:30.158Z,6.63
2022-08-18T13:36:59.672Z,7.28
2022-08-18T13:44:55.105Z,7.13
2022-08-18T13:47:38.501Z,7.88
2022-08-18T13:50:11.537Z,6.63
2022-08-18T13:52:44.674Z,6.57
2022-08-18T13:55:16.990Z,6.90
2022-08-18T13:57:49.620Z,7.05
2022-08-18T14:00:29.623Z,6.10
2022-08-18T14:03:02.137Z,6.40
2022-08-18T14:05:36.463Z,5.88
2022-08-18T14:08:21.576Z,5.75
2022-08-18T14:10:54.392Z,5.47
2022-08-18T14:13:24.870Z,5.40
2022-08-18T14:15:56.011Z,5.63
2022-08-18T14:18:29.240Z,6.07
2022-08-18T14:21:22.970Z,6.60
2022-08-18T14:24:10.294Z,5.85
2022-08-18T14:26:50.186Z,6.53
2022-08-18T14:29:46.741Z,6.03
2022-08-18T14:32:11.920Z,6.15
2022-08-18T14:34:51.166Z,7.07
2022-08-18T14:37:30.976Z,5.93
2022-08-18T14:40:04.584Z,6.32
2022-08-18T14:42:41.824Z,6.00
2022-08-18T14:45:31.280Z,6.60
2022-08-18T14:48:11.061Z,5.72
2022-08-18T14:50:49.077Z,6.22
2022-08-18T14:53:21.773Z,5.13
2022-08-18T14:55:52.509Z,6.25
2022-08-18T14:58:25.386Z,5.85
2022-08-18T15:00:54.924Z,6.70
2022-08-18T15:03:28.379Z,6.30
2022-08-18T15:06:04.656Z,6.20
2022-08-18T15:08:36.763Z,5.47
2022-08-18T15:11:11.544Z,7.18
2022-08-18T15:13:43.504Z,6.10
2022-08-18T15:16:15.701Z,6.72
2022-08-18T15:18:45.827Z,6.57
2022-08-18T15:21:35.352Z,6.32
2022-08-18T15:24:28.447Z,6.15
2022-08-18T15:27:05.819Z,5.97
2022-08-18T15:29:36.234Z,6.43
2022-08-18T15:32:15.315Z,5.63
2022-08-18T15:34:51.053Z,6.22
2022-08-18T15:37:24.059Z,6.00
2022-08-18T15:40:03.938Z,5.47
2022-08-18T15:42:33.478Z,6.07
2022-08-18T15:45:11.964Z,5.70
2022-08-18T15:47:43.566Z,5.90
2022-08-18T15:50:25.332Z,5.68
2022-08-18T15:52:58.123Z,5.50
2022-08-18T15:55:35.745Z,6.72
2022-08-18T15:58:11.012Z,5.95
2022-08-18T16:00:48.447Z,5.25
2022-08-18T16:03:20.506Z,5.13
2022-08-18T16:05:53.158Z,6.30
2022-08-18T16:08:23.324Z,5.20
2022-08-18T16:10:54.378Z,5.82
2022-08-18T16:13:24.584Z,5.43
2022-08-18T16:15:54.061Z,6.15
2022-08-18T16:18:23.202Z,5.57
2022-08-18T16:20:56.674Z,5.35
2022-08-18T16:23:27.508Z,6.00
2022-08-18T16:26:02.579Z,6.47
2022-08-18T16:28:34.885Z,5.22
2022-08-18T16:31:08.007Z,4.88
2022-08-18T16:33:37.404Z,4.60
2022-08-18T16:36:07.099Z,4.93
2022-08-18T16:38:38.408Z,5.28
2022-08-18T16:41:12.396Z,5.32
2022-08-18T16:43:44.485Z,4.50
2022-08-18T16:46:15.162Z,4.50
2022-08-18T16:48:48.093Z,4.40
2022-08-18T16:51:19.348Z,4.28
2022-08-18T16:53:52.348Z,4.60
2022-08-18T16:56:23.821Z,4.10
2022-08-18T16:59:11.423Z,4.53
2022-08-18T17:01:58.555Z,4.78
2022-08-18T17:04:29.577Z,5.93
2022-08-18T17:06:59.062Z,3.47
2022-08-18T17:09:30.337Z,3.97
2022-08-18T17:12:00.989Z,3.67
2022-08-18T17:14:31.100Z,3.90
2022-08-18T17:17:00.608Z,3.65
2022-08-18T17:19:34.787Z,3.88
2022-08-18T17:22:05.399Z,3.83
2022-08-18T17:24:38.150Z,3.40
2022-08-18T17:27:26.016Z,4.15
2022-08-18T17:30:03.970Z,4.32
2022-08-18T17:35:17.239Z,3.85
2022-08-18T17:37:49.453Z,3.45
2022-08-18T17:40:21.080Z,4.10
2022-08-18T17:42:52.645Z,3.13
2022-08-18T17:45:22.521Z,4.22
2022-08-18T17:47:56.195Z,3.92
2022-08-18T17:50:44.907Z,4.00
2022-08-18T17:53:14.539Z,3.88
2022-08-18T17:55:46.764Z,3.53
2022-08-18T17:58:20.664Z,4.05
2022-08-18T18:00:49.962Z,4.25
2022-08-18T18:03:19.293Z,4.25
2022-08-18T18:05:53.146Z,4.00
2022-08-18T18:08:22.391Z,4.03
2022-08-18T18:11:07.670Z,4.53
2022-08-18T18:13:41.155Z,4.20
2022-08-18T18:16:22.358Z,3.63
2022-08-18T18:18:59.968Z,3.53
2022-08-18T18:21:53.431Z,3.70
2022-08-18T18:24:30.472Z,4.22
2022-08-18T18:27:03.819Z,3.33
2022-08-18T18:29:40.020Z,4.15
2022-08-18T18:32:24.793Z,4.43
2022-08-18T18:35:05.253Z,4.25
2022-08-18T18:37:36.209Z,3.65
2022-08-18T18:40:10.849Z,3.80
2022-08-18T18:42:41.409Z,4.07
2022-08-18T18:45:21.082Z,3.88
2022-08-18T18:47:55.926Z,3.88
2022-08-18T18:50:30.174Z,4.18
2022-08-18T18:53:09.116Z,4.43
2022-08-18T18:55:42.762Z,4.13
2022-08-18T18:58:17.134Z,4.95
2022-08-18T19:00:54.136Z,4.20
2022-08-18T19:03:28.159Z,3.88
2022-08-18T19:06:07.873Z,3.90
2022-08-18T19:08:40.290Z,3.75
2022-08-18T19:11:13.406Z,3.67
2022-08-18T19:13:45.486Z,3.53
2022-08-18T19:16:24.835Z,2.92
2022-08-18T19:18:57.753Z,3.15
2022-08-18T19:22:04.683Z,2.97
2022-08-18T19:24:38.825Z,2.88
2022-08-18T19:27:09.356Z,3.40
2022-08-18T19:29:44.526Z,2.50
2022-08-18T19:32:17.083Z,3.75
2022-08-18T19:34:52.625Z,2.88
2022-08-18T19:37:31.322Z,2.60
2022-08-18T19:40:04.797Z,2.97
2022-08-18T19:42:43.449Z,2.40
2022-08-18T19:45:20.943Z,2.50
2022-08-18T19:47:56.009Z,3.25
2022-08-18T19:50:28.009Z,3.05
2022-08-18T19:53:05.652Z,2.72
2022-08-18T19:55:41.250Z,2.58
2022-08-18T19:58:22.866Z,2.75
2022-08-18T20:00:54.641Z,2.70
2022-08-18T20:03:35.529Z,2.83
2022-08-18T20:06:30.198Z,2.60
2022-08-18T20:09:05.267Z,2.60
2022-08-18T20:11:44.239Z,2.65
2022-08-18T20:14:14.576Z,2.40
2022-08-18T20:16:45.191Z,2.30
2022-08-18T20:19:36.344Z,2.42
2022-08-18T20:22:07.659Z,2.88
2022-08-18T20:24:48.886Z,2.20
2022-08-18T20:27:23.896Z,2.25
2022-08-18T20:30:02.610Z,2.15
2022-08-18T20:32:34.644Z,2.00
2022-08-18T20:35:17.000Z,1.90
2022-08-18T20:37:47.893Z,2.17
2022-08-18T20:40:31.975Z,2.63
2022-08-18T20:43:07.397Z,2.33
2022-08-18T20:45:42.589Z,2.92
2022-08-18T20:48:22.406Z,2.28
2022-08-18T20:51:06.260Z,1.95
2022-08-18T20:53:53.592Z,2.25
2022-08-18T20:56:31.609Z,2.45
2022-08-18T20:59:08.991Z,2.78
2022-08-18T21:01:39.185Z,2.55
2022-08-18T21:04:08.985Z,2.10
2022-08-18T21:06:42.113Z,2.35
2022-08-18T21:09:18.538Z,2.38
2022-08-18T21:11:49.213Z,2.50
2022-08-18T21:14:25.668Z,2.50
2022-08-18T21:17:00.215Z,3.00
2022-08-18T21:19:31.597Z,2.88
2022-08-18T21:22:02.427Z,2.58
2022-08-18T21:24:34.124Z,2.55
2022-08-18T21:27:05.558Z,2.42
2022-08-18T21:29:46.195Z,2.63
2022-08-18T21:32:20.405Z,2.35
2022-08-18T21:34:53.365Z,2.42
2022-08-18T21:37:25.584Z,2.83
2022-08-18T21:39:57.163Z,2.92
2022-08-18T21:42:28.228Z,2.60
2022-08-18T21:45:01.217Z,2.35
2022-08-18T21:47:33.746Z,2.53
2022-08-18T21:50:10.580Z,2.67
2022-08-18T21:52:41.341Z,2.60
2022-08-18T21:55:21.629Z,2.78
2022-08-18T21:57:52.789Z,2.92
2022-08-18T22:00:26.881Z,2.50
2022-08-18T22:03:11.450Z,2.30
2022-08-18T22:05:57.820Z,3.20
2022-08-18T22:08:30.770Z,3.05
2022-08-18T22:11:59.612Z,3.93
2022-08-18T22:14:35.773Z,3.22
2022-08-18T22:17:24.742Z,2.90
2022-08-18T22:19:54.270Z,3.90
2022-08-18T22:22:43.831Z,2.45
2022-08-18T22:25:14.173Z,3.40
2022-08-18T22:27:51.501Z,2.83
2022-08-18T22:30:20.869Z,3.10
2022-08-18T22:32:50.511Z,2.88
2022-08-18T22:35:19.879Z,3.13
2022-08-18T22:37:50.929Z,3.08
2022-08-18T22:40:21.494Z,3.05
2022-08-18T22:42:53.192Z,2.67
2022-08-18T22:45:23.226Z,2.85
2022-08-18T22:47:57.545Z,2.90
2022-08-18T22:50:27.353Z,3.17
2022-08-18T22:52:57.009Z,3.00
2022-08-18T22:55:26.379Z,2.85
2022-08-18T22:57:59.841Z,3.58
2022-08-18T23:00:30.067Z,2.13
2022-08-18T23:02:59.836Z,2.78
2022-08-18T23:05:29.796Z,2.88
2022-08-18T23:07:59.249Z,2.53
2022-08-18T23:10:28.771Z,2.53
2022-08-18T23:13:04.094Z,2.05
2022-08-18T23:15:43.898Z,2.08
2022-08-18T23:18:13.208Z,2.40
2022-08-18T23:20:42.428Z,2.17
2022-08-18T23:23:11.533Z,1.77
2022-08-18T23:25:41.537Z,2.00
2022-08-18T23:28:12.597Z,2.15
2022-08-18T23:30:44.547Z,1.70
2022-08-18T23:33:14.997Z,1.95
2022-08-18T23:35:45.085Z,1.80
2022-08-18T23:38:15.893Z,1.63
2022-08-18T23:40:46.726Z,1.90
2022-08-18T23:43:17.682Z,2.20
2022-08-18T23:45:49.589Z,1.83
2022-08-18T23:48:21.139Z,2.22
2022-08-18T23:50:51.082Z,2.55
2022-08-18T23:53:20.908Z,2.33
2022-08-18T23:55:50.434Z,2.08
2022-08-18T23:58:21.219Z,2.20
